Newport, RI (02840)

2:16 AM EDT on May 06, 2015 (GMT -0400)
Historic hill | | Change Station
CLOSE
Current Station
Personal Weather Station
Location: Newport, RI
Elevation: 85 ft
Nearby Weather Stations

Elev 85 ft 41.48 °N, 71.31 °W | Updated 57 seconds ago

Mostly Cloudy
Mostly Cloudy
55.1 °F
Feels Like 55.1 °F
N
0.0
Wind Variable Wind from East
Gusts 0.0 mph

Today
High -- | Low -- °F
--% Chance of Precip.
Yesterday
High -- | Low -- °F
Precip. -- in
5:36 AM 7:48 PM
Waning Gibbous, 95% visible
Pressure 30.20 in
Visibility 10.0 miles
Clouds Clear
Dew Point 50 °F
Humidity 84%
Rainfall 0.00 in
Snow Depth Not available.
UV 0 out of 12
Pollen 8.80 out of 12
Air Quality Not available.
Flu Activity Local Activity
METAR KUUU 060553Z AUTO 04003KT 10SM CLR 12/09 A3020 RMK AO2 SLP225 T01170094 10139 20117 58008

More Conditions Fewer Conditions

Pressure 30.20 in
Visibility 10.0 miles
Clouds Clear
Dew Point 50 °F
Humidity 84%
Rainfall 0.00 in
Snow Depth Not available.
UV 0 out of 12
Pollen 8.80 out of 12
Air Quality Not available.
Flu Activity Local Activity
METAR KUUU 060553Z AUTO 04003KT 10SM CLR 12/09 A3020 RMK AO2 SLP225 T01170094 10139 20117 58008

More Conditions Fewer Conditions

10-Day Weather Forecast

Almanac

Astronomy

May. 06, 2015 Rise Set
Actual Time
Civil Twilight
Nautical Twilight
Astronomical Twilight
Moon
Length of Visible Light
Length of Day
Tomorrow will be .
, % of the Moon is Illuminated

Today's Extremes

State Highs State Lows

Community

WunderPhotos

Upload Photos

1,818,848 photos uploaded!

WunderBlogs® & News

Nearby

Air Quality

  Air Quality AQ Index Pollutant
Not available.

Snow Depth

Station Depth Elevation

Earthquake Activity

City Distance Mag. Time & Date
Minimum magnitude displayed is 2.5.

Coastal Water Temperatures

Place Temperature

Stations

Nearby Weather Stations

Station Location Temp. Windchill Dew Point Humidity Wind Precip. Elev Updated Type